Time;durP1;ratioP1;P1;durP2;ratioP2;P2;SDS_P1;SDS_P2;PMS_P1;PMS_P2;Temp;Humidity;BMP_temperature;BMP_pressure;BME280_temperature;BME280_humidity;BME280_pressure;Samples;Min_cycle;Max_cycle;Signal;HPM_P1;HPM_P2
2022/08/15 00:01:15;;;;;;;11.43;8.57;;;22.80;99.90;;;;;;5043238;28;20053;-71
2022/08/15 00:03:47;;;;;;;9.57;8.32;;;22.80;99.90;;;;;;5038523;28;20045;-71
2022/08/15 00:06:22;;;;;;;9.07;8.18;;;22.80;99.90;;;;;;5045806;28;20051;-71
2022/08/15 00:08:53;;;;;;;9.20;8.10;;;22.70;99.90;;;;;;5056798;28;20780;-71
2022/08/15 00:11:23;;;;;;;13.50;9.45;;;22.70;99.90;;;;;;5044493;28;20052;-71
2022/08/15 00:13:53;;;;;;;10.77;9.50;;;22.70;99.90;;;;;;5060303;28;20056;-72
2022/08/15 00:16:19;;;;;;;11.27;8.75;;;22.70;99.90;;;;;;5040771;28;20040;-73
2022/08/15 00:18:47;;;;;;;12.40;9.38;;;22.70;99.90;;;;;;5051030;28;20045;-72
2022/08/15 00:21:13;;;;;;;11.27;9.90;;;22.60;99.90;;;;;;5048043;28;20461;-71
2022/08/15 00:23:40;;;;;;;11.55;10.25;;;22.60;99.90;;;;;;5042068;28;20353;-71
2022/08/15 00:26:08;;;;;;;11.43;10.20;;;22.60;99.90;;;;;;5059051;28;20048;-71
2022/08/15 00:28:34;;;;;;;13.82;10.50;;;22.50;99.90;;;;;;5060937;28;20284;-71
2022/08/15 00:31:00;;;;;;;12.50;10.90;;;22.40;99.90;;;;;;5040929;28;20087;-72
2022/08/15 00:33:28;;;;;;;11.95;10.80;;;22.40;99.90;;;;;;5037817;28;20174;-71
2022/08/15 00:35:54;;;;;;;10.95;9.88;;;22.30;99.90;;;;;;5039291;28;20063;-71
2022/08/15 00:38:23;;;;;;;10.60;9.50;;;22.30;99.90;;;;;;5057189;28;20079;-71
2022/08/15 00:43:41;;;;;;;12.25;10.95;;;22.20;99.90;;;;;;5061704;28;20037;-71
2022/08/15 00:46:09;;;;;;;11.05;9.60;;;22.20;99.90;;;;;;5038427;28;20116;-71
2022/08/15 00:48:41;;;;;;;12.45;11.18;;;22.20;99.90;;;;;;5058715;28;20288;-71
2022/08/15 00:51:32;;;;;;;12.82;10.07;;;22.20;99.90;;;;;;5060732;28;20318;-72
2022/08/15 00:54:04;;;;;;;11.35;10.13;;;22.20;99.90;;;;;;5058985;28;20156;-71
2022/08/15 00:56:35;;;;;;;11.07;9.90;;;22.10;99.90;;;;;;5058860;28;20124;-71
2022/08/15 00:59:02;;;;;;;14.43;11.00;;;22.10;99.90;;;;;;5037172;28;20496;-73
2022/08/15 01:01:27;;;;;;;12.32;10.95;;;22.10;99.90;;;;;;5058563;28;20492;-72
2022/08/15 01:03:53;;;;;;;13.55;11.98;;;22.00;99.90;;;;;;5058585;28;20059;-71
2022/08/15 01:06:21;;;;;;;13.20;11.80;;;22.00;99.90;;;;;;5059255;28;20068;-71
2022/08/15 01:08:47;;;;;;;12.43;11.23;;;22.00;99.90;;;;;;5039701;28;20078;-71
2022/08/15 01:11:31;;;;;;;13.45;12.00;;;21.90;99.90;;;;;;5056352;28;20068;-72
2022/08/15 01:13:59;;;;;;;12.73;10.93;;;21.90;99.90;;;;;;5061275;28;20045;-71
2022/08/15 01:16:26;;;;;;;13.63;12.02;;;21.80;99.90;;;;;;5035770;28;20048;-71
2022/08/15 01:18:53;;;;;;;13.52;11.48;;;21.80;99.90;;;;;;5038517;28;20156;-71
2022/08/15 01:21:56;;;;;;;18.27;13.43;;;21.70;99.90;;;;;;5058059;28;20537;-71
2022/08/15 01:24:47;;;;;;;13.75;12.23;;;21.60;99.90;;;;;;5057948;28;20313;-71
2022/08/15 01:27:13;;;;;;;13.68;12.27;;;21.60;99.90;;;;;;5056877;28;20481;-71
2022/08/15 01:29:40;;;;;;;13.63;12.23;;;21.60;99.90;;;;;;5057635;28;20266;-71
2022/08/15 01:32:07;;;;;;;14.32;12.10;;;21.60;99.90;;;;;;5058292;28;20042;-71
2022/08/15 01:34:32;;;;;;;14.43;12.05;;;21.60;99.90;;;;;;5055812;28;21777;-72
2022/08/15 01:36:58;;;;;;;13.48;11.95;;;21.60;99.90;;;;;;5058982;28;20051;-71
2022/08/15 01:39:43;;;;;;;14.85;12.15;;;21.60;99.90;;;;;;5038095;28;20048;-71
2022/08/15 01:42:13;;;;;;;15.93;12.32;;;21.50;99.90;;;;;;5038508;28;20178;-71
2022/08/15 01:44:50;;;;;;;13.30;11.85;;;21.50;99.90;;;;;;5038145;28;20041;-71
2022/08/15 01:47:49;;;;;;;16.20;12.95;;;21.50;99.90;;;;;;5058222;28;20055;-71
2022/08/15 01:50:27;;;;;;;14.13;12.00;;;21.50;99.90;;;;;;5054736;28;20316;-71
2022/08/15 01:53:08;;;;;;;13.60;12.20;;;21.50;99.90;;;;;;5058779;28;20068;-71
2022/08/15 01:55:43;;;;;;;16.23;12.88;;;21.50;99.90;;;;;;5060725;28;20190;-71
2022/08/15 01:58:09;;;;;;;13.57;12.25;;;21.40;99.90;;;;;;5049407;28;20055;-70
2022/08/15 02:00:36;;;;;;;14.60;13.18;;;21.40;99.90;;;;;;5034708;28;20682;-71
2022/08/15 02:03:02;;;;;;;14.63;13.15;;;21.40;99.90;;;;;;5056621;28;20044;-71
2022/08/15 02:05:28;;;;;;;15.35;13.75;;;21.40;99.90;;;;;;5039845;28;20040;-71
2022/08/15 02:07:54;;;;;;;15.10;13.65;;;21.40;99.90;;;;;;5055786;28;20057;-71
2022/08/15 02:10:19;;;;;;;16.02;14.43;;;21.30;99.90;;;;;;5052492;28;20099;-71
2022/08/15 02:12:45;;;;;;;17.17;14.25;;;21.30;99.90;;;;;;5057765;28;20041;-71
2022/08/15 02:15:18;;;;;;;15.73;14.15;;;21.30;99.90;;;;;;5054548;28;20071;-72
2022/08/15 02:17:44;;;;;;;15.77;14.15;;;21.30;99.90;;;;;;5058424;28;20575;-71
2022/08/15 02:20:12;;;;;;;15.55;14.05;;;21.20;99.90;;;;;;5052465;28;20059;-71
2022/08/15 02:22:38;;;;;;;16.08;14.52;;;21.20;99.90;;;;;;5054121;28;20063;-72
2022/08/15 02:25:06;;;;;;;16.25;14.55;;;21.10;99.90;;;;;;5056424;28;20144;-70
2022/08/15 02:27:35;;;;;;;17.13;15.13;;;21.10;99.90;;;;;;5036782;28;20037;-71
2022/08/15 02:30:12;;;;;;;19.80;14.55;;;21.10;99.90;;;;;;5056872;28;20033;-72
2022/08/15 02:32:39;;;;;;;17.05;15.20;;;21.10;99.90;;;;;;5054594;28;20059;-72
2022/08/15 02:35:07;;;;;;;17.05;15.10;;;21.00;99.90;;;;;;5034980;28;20044;-71
2022/08/15 02:37:33;;;;;;;19.45;14.65;;;21.00;99.90;;;;;;5054887;28;20056;-71
2022/08/15 02:39:59;;;;;;;17.30;15.55;;;21.00;99.90;;;;;;5056577;28;20041;-71
2022/08/15 02:42:25;;;;;;;17.52;15.73;;;21.00;99.90;;;;;;5065003;28;20099;-71
2022/08/15 02:44:52;;;;;;;17.80;15.73;;;20.90;99.90;;;;;;5045776;28;20538;-71
2022/08/15 02:47:18;;;;;;;18.40;16.42;;;20.90;99.90;;;;;;5060588;28;20051;-71
2022/08/15 02:49:45;;;;;;;19.98;17.88;;;20.90;99.90;;;;;;5037860;28;20246;-72
2022/08/15 02:52:12;;;;;;;23.70;17.33;;;20.90;99.90;;;;;;5045009;28;20052;-71
2022/08/15 02:54:39;;;;;;;21.15;19.00;;;20.90;99.90;;;;;;5039810;28;20041;-72
2022/08/15 02:57:06;;;;;;;21.70;17.58;;;20.90;99.90;;;;;;5058326;28;20060;-71
2022/08/15 02:59:32;;;;;;;19.73;17.63;;;20.80;99.90;;;;;;5043566;28;20143;-72
2022/08/15 03:01:59;;;;;;;21.65;17.55;;;20.80;99.90;;;;;;5058273;28;20106;-72
2022/08/15 03:04:25;;;;;;;23.17;19.10;;;20.80;99.90;;;;;;5058942;28;20087;-72
2022/08/15 03:06:53;;;;;;;20.10;18.00;;;20.80;99.90;;;;;;5062007;28;20048;-73
2022/08/15 03:09:20;;;;;;;21.23;17.58;;;20.80;99.90;;;;;;5055168;28;20048;-72
2022/08/15 03:11:47;;;;;;;21.73;19.35;;;20.80;99.90;;;;;;5039964;28;20126;-72
2022/08/15 03:14:16;;;;;;;23.00;18.23;;;20.70;99.90;;;;;;5040129;28;20174;-71
2022/08/15 03:16:44;;;;;;;20.77;17.65;;;20.70;99.90;;;;;;5039031;28;20040;-71
2022/08/15 03:19:18;;;;;;;20.60;18.40;;;20.70;99.90;;;;;;5058539;28;20036;-71
2022/08/15 03:21:48;;;;;;;21.98;19.10;;;20.70;99.90;;;;;;5059274;28;20048;-71
2022/08/15 03:24:15;;;;;;;22.88;18.52;;;20.70;99.90;;;;;;5057517;28;20068;-71
2022/08/15 03:26:46;;;;;;;22.50;19.02;;;20.70;99.90;;;;;;5055579;28;20127;-70
2022/08/15 03:29:16;;;;;;;20.67;18.65;;;20.70;99.90;;;;;;5061910;28;20479;-71
2022/08/15 03:31:43;;;;;;;21.55;19.38;;;20.70;99.90;;;;;;5043150;28;20498;-72
2022/08/15 03:34:10;;;;;;;24.00;20.13;;;20.70;99.90;;;;;;5057179;28;20055;-72
2022/08/15 03:36:37;;;;;;;23.98;20.55;;;20.60;99.90;;;;;;5038124;28;20041;-72
2022/08/15 03:39:04;;;;;;;23.75;20.17;;;20.60;99.90;;;;;;5055536;28;20378;-72
2022/08/15 03:41:30;;;;;;;21.23;18.90;;;20.50;99.90;;;;;;5039023;28;20037;-72
2022/08/15 03:43:56;;;;;;;25.45;20.17;;;20.50;99.90;;;;;;5060899;28;20045;-72
2022/08/15 03:46:22;;;;;;;23.88;20.33;;;20.50;99.90;;;;;;5040897;28;20094;-72
2022/08/15 03:48:52;;;;;;;23.38;20.98;;;20.50;99.90;;;;;;5057953;28;20063;-72
2022/08/15 03:51:21;;;;;;;21.17;18.98;;;20.50;99.90;;;;;;5060543;28;20127;-72
2022/08/15 03:53:50;;;;;;;24.23;20.30;;;20.50;99.90;;;;;;5044939;28;20385;-71
2022/08/15 03:56:22;;;;;;;25.83;20.98;;;20.50;99.90;;;;;;5054032;28;20051;-71
2022/08/15 03:58:48;;;;;;;22.50;20.10;;;20.40;99.90;;;;;;5044672;28;20090;-71
2022/08/15 04:01:17;;;;;;;23.60;19.40;;;20.40;99.90;;;;;;5052177;28;20191;-72
2022/08/15 04:03:44;;;;;;;22.48;19.70;;;20.40;99.90;;;;;;5056203;28;20411;-72
2022/08/15 04:06:15;;;;;;;24.88;22.23;;;20.40;99.90;;;;;;5057971;28;20052;-72
2022/08/15 04:08:42;;;;;;;23.48;20.88;;;20.40;99.90;;;;;;5039207;28;20044;-71
2022/08/15 04:11:08;;;;;;;23.83;20.63;;;20.40;99.90;;;;;;5039096;28;20048;-71
2022/08/15 04:13:35;;;;;;;22.52;19.98;;;20.40;99.90;;;;;;5038158;28;20048;-71
2022/08/15 04:16:02;;;;;;;25.45;20.40;;;20.40;99.90;;;;;;5054970;28;20044;-71
2022/08/15 04:18:29;;;;;;;22.88;19.88;;;20.40;99.90;;;;;;5040431;28;20969;-72
2022/08/15 04:20:57;;;;;;;22.20;19.90;;;20.40;99.90;;;;;;5037195;28;20056;-72
2022/08/15 04:23:23;;;;;;;22.30;19.30;;;20.40;99.90;;;;;;5056916;28;20114;-73
2022/08/15 04:25:49;;;;;;;25.13;20.75;;;20.40;99.90;;;;;;5054304;28;20045;-72
2022/08/15 04:28:17;;;;;;;23.85;20.13;;;20.40;99.90;;;;;;5052194;28;20047;-72
2022/08/15 04:30:46;;;;;;;24.15;21.00;;;20.40;99.90;;;;;;5058442;28;20028;-71
2022/08/15 04:33:21;;;;;;;23.17;20.67;;;20.40;99.90;;;;;;5058692;28;20165;-75
2022/08/15 04:35:54;;;;;;;22.10;19.48;;;20.30;99.90;;;;;;5061444;28;20435;-72
2022/08/15 04:38:20;;;;;;;22.77;20.30;;;20.20;99.90;;;;;;5055307;28;20154;-71
2022/08/15 04:40:46;;;;;;;23.23;20.77;;;20.20;99.90;;;;;;5059943;28;20087;-71
2022/08/15 04:43:12;;;;;;;24.40;21.77;;;20.30;99.90;;;;;;5038395;28;20085;-71
2022/08/15 04:45:40;;;;;;;25.33;20.30;;;20.30;99.90;;;;;;5041727;28;20559;-72
2022/08/15 04:48:07;;;;;;;26.00;20.92;;;20.30;99.90;;;;;;5057203;28;20215;-72
2022/08/15 04:50:35;;;;;;;28.00;23.33;;;20.30;99.90;;;;;;5061593;28;20583;-72
2022/08/15 04:53:02;;;;;;;29.38;22.98;;;20.30;99.90;;;;;;5059753;28;20047;-71
2022/08/15 04:55:29;;;;;;;26.40;23.13;;;20.30;99.90;;;;;;5060949;28;20483;-72
2022/08/15 04:57:56;;;;;;;26.88;23.08;;;20.30;99.90;;;;;;5038977;28;20115;-73
2022/08/15 05:00:25;;;;;;;27.55;22.60;;;20.40;99.90;;;;;;5056930;28;20052;-72
2022/08/15 05:03:08;;;;;;;24.98;22.27;;;20.40;99.90;;;;;;5057986;28;20409;-72
2022/08/15 05:05:36;;;;;;;26.10;22.25;;;20.50;99.90;;;;;;5040196;28;20131;-72
2022/08/15 05:08:03;;;;;;;23.98;21.25;;;20.50;99.90;;;;;;5055775;28;20090;-71
2022/08/15 05:10:32;;;;;;;28.00;22.17;;;20.50;99.90;;;;;;5061130;28;20060;-72
2022/08/15 05:13:11;;;;;;;25.13;21.38;;;20.60;99.90;;;;;;5036405;28;20036;-72
2022/08/15 05:15:37;;;;;;;30.88;22.95;;;20.60;99.90;;;;;;5063159;28;20186;-72
2022/08/15 05:18:03;;;;;;;28.75;21.02;;;20.60;99.90;;;;;;5037636;28;20063;-72
2022/08/15 05:20:29;;;;;;;26.42;21.63;;;20.70;99.90;;;;;;5040243;28;20048;-72
2022/08/15 05:23:01;;;;;;;25.30;21.27;;;20.70;99.90;;;;;;5036562;28;20033;-71
2022/08/15 05:25:28;;;;;;;25.98;22.25;;;20.80;99.90;;;;;;5059639;28;20037;-72
2022/08/15 05:27:54;;;;;;;23.23;20.33;;;20.80;99.90;;;;;;5037783;28;20085;-71
2022/08/15 05:30:21;;;;;;;27.30;20.80;;;21.00;99.90;;;;;;5039968;28;20087;-72
2022/08/15 05:32:47;;;;;;;30.63;20.55;;;21.00;99.90;;;;;;5036810;28;20493;-72
2022/08/15 05:35:14;;;;;;;24.95;19.92;;;21.10;99.90;;;;;;5038200;28;20070;-74
2022/08/15 05:37:39;;;;;;;26.75;20.00;;;21.20;99.90;;;;;;5058711;28;20409;-72
2022/08/15 05:40:09;;;;;;;21.50;19.02;;;21.30;99.90;;;;;;5057609;28;20048;-71
2022/08/15 05:42:47;;;;;;;21.52;19.30;;;21.40;99.90;;;;;;5037336;28;20785;-73
2022/08/15 05:45:30;;;;;;;25.20;19.92;;;21.40;99.90;;;;;;5040531;28;20072;-73
2022/08/15 05:48:18;;;;;;;27.67;20.63;;;21.40;99.90;;;;;;5056750;28;20044;-73
2022/08/15 05:50:57;;;;;;;23.23;20.08;;;21.50;99.90;;;;;;5053466;28;20557;-72
2022/08/15 05:53:29;;;;;;;25.92;20.20;;;21.50;99.90;;;;;;5054659;28;20127;-73
2022/08/15 05:56:19;;;;;;;23.20;19.55;;;21.50;99.90;;;;;;5038862;28;20127;-72
2022/08/15 05:59:02;;;;;;;22.92;19.90;;;21.60;99.90;;;;;;5045036;28;20163;-73
2022/08/15 06:01:33;;;;;;;22.83;20.13;;;21.60;99.90;;;;;;5055954;28;20076;-72
2022/08/15 06:04:09;;;;;;;22.65;18.90;;;21.70;99.90;;;;;;5034155;28;20505;-72
2022/08/15 06:06:38;;;;;;;24.20;20.10;;;21.80;99.90;;;;;;5060430;28;20041;-73
2022/08/15 06:09:31;;;;;;;22.23;19.08;;;21.90;99.90;;;;;;5062991;28;20060;-73
2022/08/15 06:12:02;;;;;;;24.73;19.23;;;22.00;99.90;;;;;;5037376;28;20044;-73
2022/08/15 06:14:38;;;;;;;20.70;18.55;;;22.00;99.90;;;;;;5034065;28;20190;-73
2022/08/15 06:17:23;;;;;;;22.00;18.25;;;22.00;99.90;;;;;;5039719;28;20048;-73
2022/08/15 06:19:51;;;;;;;23.13;18.77;;;22.10;99.90;;;;;;5020469;28;20037;-73
2022/08/15 06:22:58;;;;;;;22.33;19.33;;;22.10;99.90;;;;;;5032880;28;20037;-74
2022/08/15 06:26:05;;;;;;;24.63;20.52;;;22.20;99.90;;;;;;5043584;28;20045;-71
2022/08/15 06:28:48;;;;;;;24.25;20.02;;;22.30;99.90;;;;;;4995886;28;20084;-70
2022/08/15 06:31:34;;;;;;;23.40;21.00;;;22.50;99.90;;;;;;5023485;28;20044;-71
2022/08/15 06:34:21;;;;;;;23.35;20.13;;;22.60;99.90;;;;;;5027327;28;20653;-70
2022/08/15 06:37:00;;;;;;;23.98;20.65;;;22.90;99.90;;;;;;5049163;28;20468;-71
2022/08/15 06:39:47;;;;;;;21.10;18.88;;;23.00;99.90;;;;;;5038771;28;20044;-71
2022/08/15 06:42:33;;;;;;;22.73;19.48;;;23.10;99.90;;;;;;5050771;28;20073;-70
2022/08/15 06:45:04;;;;;;;22.83;20.42;;;23.30;99.90;;;;;;5047557;28;20052;-70
2022/08/15 06:47:31;;;;;;;23.33;19.40;;;23.50;99.90;;;;;;5043386;28;20131;-70
2022/08/15 06:50:03;;;;;;;21.27;18.35;;;23.60;99.90;;;;;;5039417;28;20040;-70
2022/08/15 06:52:30;;;;;;;20.52;17.63;;;23.70;99.90;;;;;;5048828;28;20033;-70
2022/08/15 06:54:57;;;;;;;22.08;18.60;;;23.80;99.90;;;;;;5047602;28;20045;-71
2022/08/15 06:57:34;;;;;;;23.48;18.67;;;23.90;99.90;;;;;;5043432;28;20049;-70
2022/08/15 07:00:58;;;;;;;20.48;18.35;;;24.10;99.90;;;;;;5052481;28;20045;-70
2022/08/15 07:04:02;;;;;;;18.80;16.83;;;24.30;99.90;;;;;;4987541;28;20076;-70
2022/08/15 07:06:36;;;;;;;18.25;16.35;;;24.60;99.90;;;;;;5041892;28;20405;-70
2022/08/15 07:09:22;;;;;;;20.02;16.13;;;24.70;99.90;;;;;;5048897;28;20068;-71
2022/08/15 07:12:05;;;;;;;18.35;16.58;;;24.80;99.90;;;;;;5052603;28;20037;-71
2022/08/15 07:14:46;;;;;;;19.10;15.07;;;24.90;99.90;;;;;;5037288;28;20052;-71
2022/08/15 07:17:40;;;;;;;17.70;15.25;;;25.10;99.90;;;;;;5029830;28;20520;-70
2022/08/15 07:20:07;;;;;;;15.88;14.15;;;25.20;99.90;;;;;;5032092;28;20076;-71
2022/08/15 07:22:34;;;;;;;17.45;15.63;;;25.30;99.90;;;;;;5039007;28;20419;-71
2022/08/15 07:25:00;;;;;;;15.00;13.30;;;25.40;99.90;;;;;;5047156;28;20045;-70
2022/08/15 07:27:33;;;;;;;16.55;14.95;;;25.50;99.90;;;;;;5048226;28;20058;-71
2022/08/15 07:30:20;;;;;;;15.45;13.82;;;25.60;99.90;;;;;;5037044;28;20045;-71
2022/08/15 07:32:51;;;;;;;14.15;12.65;;;25.60;99.90;;;;;;5047779;28;20045;-70
2022/08/15 07:35:25;;;;;;;14.15;12.43;;;25.70;99.90;;;;;;5029000;28;20104;-71
2022/08/15 07:37:58;;;;;;;12.57;11.35;;;25.90;99.90;;;;;;5051126;28;20456;-71
2022/08/15 07:40:24;;;;;;;13.30;11.93;;;26.10;99.90;;;;;;5035123;28;20061;-71
2022/08/15 07:42:51;;;;;;;12.68;11.38;;;26.20;99.90;;;;;;5038525;28;20079;-71
2022/08/15 07:45:39;;;;;;;11.68;10.45;;;26.20;99.90;;;;;;5047328;28;20043;-71
2022/08/15 07:48:20;;;;;;;12.60;11.38;;;26.20;99.90;;;;;;5042899;28;20230;-71
2022/08/15 07:51:22;;;;;;;12.45;11.15;;;26.30;99.90;;;;;;5021675;28;20571;-70
2022/08/15 07:53:59;;;;;;;15.00;12.45;;;26.40;99.90;;;;;;5015049;28;20053;-70
2022/08/15 07:56:28;;;;;;;14.60;12.07;;;26.40;99.90;;;;;;5023973;28;20033;-69
2022/08/15 07:59:22;;;;;;;12.82;10.75;;;26.40;99.90;;;;;;5047392;28;20045;-69
2022/08/15 08:01:50;;;;;;;15.43;11.18;;;26.30;99.90;;;;;;5035262;28;20129;-71
2022/08/15 08:04:24;;;;;;;11.55;10.45;;;26.40;99.90;;;;;;5028730;28;20044;-70
2022/08/15 08:07:05;;;;;;;10.98;9.60;;;26.40;99.90;;;;;;5026221;28;20430;-70
2022/08/15 08:09:56;;;;;;;12.73;9.18;;;26.50;99.90;;;;;;5031206;28;20037;-71
2022/08/15 08:12:40;;;;;;;10.45;8.70;;;26.70;99.90;;;;;;5030768;28;20436;-70
2022/08/15 08:15:20;;;;;;;9.43;8.20;;;27.00;99.90;;;;;;5058446;28;20051;-70
2022/08/15 08:17:56;;;;;;;9.13;7.43;;;27.10;99.90;;;;;;5045776;28;20112;-70
2022/08/15 08:20:45;;;;;;;9.32;7.22;;;27.20;99.90;;;;;;5023893;28;20727;-70
2022/08/15 08:23:45;;;;;;;8.50;7.65;;;27.20;99.90;;;;;;5014651;28;20128;-70
2022/08/15 08:26:29;;;;;;;10.52;8.50;;;27.30;99.90;;;;;;4987390;28;20045;-70
2022/08/15 08:29:14;;;;;;;9.77;7.50;;;27.50;99.90;;;;;;5028393;28;20191;-70
2022/08/15 08:31:45;;;;;;;12.45;7.22;;;27.60;99.90;;;;;;5052255;28;20249;-71
2022/08/15 08:34:17;;;;;;;11.32;8.00;;;27.60;99.90;;;;;;5047772;28;20040;-70
2022/08/15 08:36:53;;;;;;;9.00;7.90;;;27.80;99.90;;;;;;5041212;28;20041;-70
2022/08/15 08:39:27;;;;;;;9.50;7.82;;;28.00;99.90;;;;;;5044399;28;20426;-70
2022/08/15 08:42:05;;;;;;;10.20;6.68;;;28.10;99.90;;;;;;5045209;28;20768;-70
2022/08/15 08:44:46;;;;;;;7.30;6.60;;;28.20;99.90;;;;;;5016855;28;20427;-70
2022/08/15 08:47:16;;;;;;;8.90;7.30;;;28.40;99.60;;;;;;5016852;28;20064;-71
2022/08/15 08:49:50;;;;;;;8.05;6.82;;;28.60;99.70;;;;;;5045465;28;20052;-70
2022/08/15 08:53:04;;;;;;;9.25;7.60;;;28.70;99.60;;;;;;5048724;28;20275;-70
2022/08/15 08:55:39;;;;;;;8.30;7.40;;;28.80;99.50;;;;;;5025386;28;20436;-70
2022/08/15 08:58:11;;;;;;;9.57;8.57;;;28.90;99.10;;;;;;5022498;28;20046;-71
2022/08/15 09:00:41;;;;;;;12.27;11.13;;;29.00;99.60;;;;;;5024273;28;20056;-71
2022/08/15 09:03:29;;;;;;;10.55;9.55;;;28.90;99.10;;;;;;5021887;28;20093;-71
2022/08/15 09:05:57;;;;;;;10.75;8.73;;;29.00;99.40;;;;;;5025008;28;20049;-71
2022/08/15 09:08:43;;;;;;;9.93;8.88;;;28.90;99.60;;;;;;5029911;28;20048;-70
2022/08/15 09:11:21;;;;;;;10.23;9.18;;;28.90;99.60;;;;;;5032100;28;20040;-71
2022/08/15 09:13:49;;;;;;;10.15;9.07;;;28.90;99.60;;;;;;5044430;28;20523;-71
2022/08/15 09:16:25;;;;;;;9.90;8.90;;;29.10;99.80;;;;;;5042473;28;20048;-70
2022/08/15 09:18:58;;;;;;;10.73;9.63;;;29.40;99.90;;;;;;5043627;28;20400;-70
2022/08/15 09:21:24;;;;;;;10.57;9.48;;;29.50;99.60;;;;;;5051768;28;20045;-71
2022/08/15 09:23:50;;;;;;;12.43;11.10;;;29.60;99.40;;;;;;5054765;28;20049;-71
2022/08/15 09:26:40;;;;;;;14.00;11.20;;;29.60;99.20;;;;;;5059960;28;20052;-72
2022/08/15 09:29:12;;;;;;;14.63;12.48;;;29.70;99.70;;;;;;5059166;28;20048;-70
2022/08/15 09:31:41;;;;;;;13.15;11.95;;;29.70;99.80;;;;;;5039413;28;20044;-71
2022/08/15 09:34:28;;;;;;;12.93;10.93;;;29.70;99.80;;;;;;5057772;28;20390;-72
2022/08/15 09:37:19;;;;;;;13.80;11.80;;;29.80;99.90;;;;;;5043290;28;20045;-70
2022/08/15 09:40:00;;;;;;;15.98;11.90;;;29.80;99.80;;;;;;5059231;28;20044;-70
2022/08/15 09:42:44;;;;;;;18.15;16.35;;;29.90;99.90;;;;;;5057751;28;20036;-70
2022/08/15 09:45:34;;;;;;;17.55;13.32;;;29.60;99.90;;;;;;5039796;28;20561;-69
2022/08/15 09:48:00;;;;;;;18.90;15.82;;;29.40;99.90;;;;;;5031594;28;20099;-71
2022/08/15 09:50:59;;;;;;;18.40;16.17;;;29.40;99.90;;;;;;5055889;28;20059;-71
2022/08/15 09:53:45;;;;;;;18.52;15.45;;;29.40;99.90;;;;;;5032534;28;21458;-70
2022/08/15 09:56:17;;;;;;;19.88;16.58;;;29.50;99.90;;;;;;5036768;28;20052;-71
2022/08/15 09:58:53;;;;;;;18.75;16.88;;;29.50;99.90;;;;;;5030503;28;20422;-70
2022/08/15 10:01:24;;;;;;;18.77;15.50;;;29.50;99.90;;;;;;5035507;28;20052;-72
2022/08/15 10:03:55;;;;;;;17.50;15.00;;;29.60;99.90;;;;;;5046114;28;20075;-71
2022/08/15 10:06:48;;;;;;;17.92;16.10;;;29.70;99.90;;;;;;5030118;28;20045;-71
2022/08/15 10:09:31;;;;;;;18.67;16.70;;;29.80;99.90;;;;;;5045743;28;20052;-72
2022/08/15 10:11:56;;;;;;;18.45;16.45;;;29.70;99.90;;;;;;5045894;28;20395;-71
2022/08/15 10:14:22;;;;;;;15.02;12.55;;;29.70;99.90;;;;;;5025588;28;20055;-71
2022/08/15 10:16:58;;;;;;;16.33;13.25;;;29.80;99.90;;;;;;5047723;28;20516;-70
2022/08/15 10:19:32;;;;;;;16.85;13.70;;;29.80;99.90;;;;;;5034525;28;20601;-70
2022/08/15 10:22:21;;;;;;;15.52;13.88;;;29.90;99.90;;;;;;5036393;28;20087;-69
2022/08/15 10:25:22;;;;;;;13.05;11.75;;;30.00;99.90;;;;;;5052404;28;20428;-67
2022/08/15 10:28:19;;;;;;;13.60;12.20;;;30.10;99.80;;;;;;5033319;28;20251;-71
2022/08/15 10:31:02;;;;;;;13.23;11.82;;;30.10;99.70;;;;;;5050760;28;20072;-68
2022/08/15 10:33:33;;;;;;;15.88;12.30;;;30.10;99.80;;;;;;5032769;28;20160;-68
2022/08/15 10:36:14;;;;;;;15.40;13.80;;;30.10;99.50;;;;;;5038664;28;20040;-68
2022/08/15 10:39:00;;;;;;;13.80;12.50;;;30.10;99.40;;;;;;5040098;28;20542;-69
2022/08/15 10:41:44;;;;;;;17.17;15.10;;;29.90;99.20;;;;;;5060436;28;20110;-68
2022/08/15 10:44:57;;;;;;;14.32;12.90;;;29.70;99.10;;;;;;5059629;28;20044;-68
2022/08/15 10:47:47;;;;;;;15.20;12.50;;;29.60;99.40;;;;;;5062122;28;20103;-69
2022/08/15 10:50:24;;;;;;;15.40;13.82;;;29.60;99.60;;;;;;5059318;28;20123;-69
2022/08/15 10:53:13;;;;;;;18.42;14.60;;;29.50;99.40;;;;;;5052761;28;20045;-69
2022/08/15 10:55:40;;;;;;;14.25;12.73;;;29.40;99.20;;;;;;5052244;28;20687;-69
2022/08/15 10:58:18;;;;;;;18.08;16.35;;;29.40;99.40;;;;;;5037412;28;20067;-69
2022/08/15 11:01:07;;;;;;;17.65;15.43;;;29.40;99.70;;;;;;5034357;28;20052;-69
2022/08/15 11:03:53;;;;;;;17.23;13.88;;;29.30;99.70;;;;;;5061680;28;20063;-69
2022/08/15 11:06:23;;;;;;;15.38;13.43;;;29.30;99.90;;;;;;5038456;28;20051;-69
2022/08/15 11:09:17;;;;;;;18.30;13.00;;;29.20;99.60;;;;;;5039596;28;20512;-69
2022/08/15 11:11:54;;;;;;;15.77;14.20;;;29.30;99.60;;;;;;5028373;28;20056;-69
2022/08/15 11:14:30;;;;;;;16.75;14.65;;;29.50;99.20;;;;;;5055477;28;20175;-70
2022/08/15 11:16:58;;;;;;;15.57;13.15;;;29.60;98.90;;;;;;5035550;28;20541;-71
2022/08/15 11:19:33;;;;;;;15.35;13.80;;;29.70;98.70;;;;;;5037060;28;20132;-69
2022/08/15 11:22:08;;;;;;;15.38;10.02;;;29.70;98.40;;;;;;5054818;28;20087;-70
2022/08/15 11:24:39;;;;;;;11.50;9.35;;;29.50;97.80;;;;;;5050714;28;20051;-69
2022/08/15 11:27:11;;;;;;;10.07;9.05;;;29.40;97.40;;;;;;5061747;28;20052;-70
2022/08/15 11:29:37;;;;;;;9.00;8.07;;;29.20;97.20;;;;;;5060967;28;20059;-70
2022/08/15 11:32:03;;;;;;;10.32;8.45;;;29.10;97.00;;;;;;5065019;28;20041;-69
2022/08/15 11:34:36;;;;;;;10.27;8.50;;;29.00;95.90;;;;;;5044502;28;20037;-69
2022/08/15 11:37:29;;;;;;;9.32;7.43;;;28.80;96.50;;;;;;5039747;28;20043;-69
2022/08/15 11:40:00;;;;;;;8.40;6.35;;;28.50;96.10;;;;;;5040526;28;20071;-69
2022/08/15 11:42:29;;;;;;;8.75;5.43;;;28.40;96.10;;;;;;5058525;28;20037;-68
2022/08/15 11:45:03;;;;;;;6.10;4.60;;;28.30;96.20;;;;;;5035864;28;20043;-69
2022/08/15 11:47:31;;;;;;;7.70;4.97;;;28.50;96.50;;;;;;5040889;28;20045;-69
2022/08/15 11:50:07;;;;;;;9.75;7.25;;;28.60;96.40;;;;;;5040839;28;20127;-69
2022/08/15 11:52:37;;;;;;;9.13;7.15;;;28.70;96.00;;;;;;5055477;28;20693;-70
2022/08/15 11:55:29;;;;;;;9.80;6.13;;;28.80;96.30;;;;;;5057659;28;20056;-70
2022/08/15 11:58:12;;;;;;;9.18;5.53;;;28.80;96.00;;;;;;5036646;28;20597;-69
2022/08/15 12:00:37;;;;;;;9.63;6.03;;;28.80;96.40;;;;;;5057719;28;20558;-70
2022/08/15 12:03:21;;;;;;;11.00;6.25;;;28.70;95.80;;;;;;5044863;28;20047;-69
2022/08/15 12:05:50;;;;;;;7.18;6.15;;;28.60;95.60;;;;;;5044655;28;20056;-70
2022/08/15 12:08:28;;;;;;;6.70;5.30;;;28.60;96.00;;;;;;5056550;28;20584;-70
2022/08/15 12:11:26;;;;;;;6.82;5.50;;;28.60;96.00;;;;;;5056607;28;20049;-70
2022/08/15 12:13:55;;;;;;;9.45;5.57;;;28.60;95.90;;;;;;5018826;28;20111;-70
2022/08/15 12:16:33;;;;;;;7.13;4.45;;;28.60;96.30;;;;;;5060161;28;20086;-71
2022/08/15 12:19:37;;;;;;;11.68;6.03;;;28.60;96.30;;;;;;5049250;28;20067;-70
2022/08/15 12:22:13;;;;;;;8.10;4.43;;;28.60;95.90;;;;;;5062728;28;20037;-70
2022/08/15 12:24:42;;;;;;;6.80;4.40;;;28.60;95.60;;;;;;5042921;28;20045;-71
2022/08/15 12:27:09;;;;;;;7.10;4.28;;;28.60;96.00;;;;;;5055209;28;20063;-70
2022/08/15 12:29:35;;;;;;;11.18;4.15;;;28.60;95.60;;;;;;5059774;28;20071;-70
2022/08/15 12:32:04;;;;;;;4.88;3.58;;;28.50;95.40;;;;;;5058467;28;20048;-70
2022/08/15 12:34:36;;;;;;;6.25;3.90;;;28.50;95.40;;;;;;5058667;28;20043;-69
2022/08/15 12:37:06;;;;;;;;;;;28.40;95.20;;;;;;5045363;28;20105;-69
2022/08/15 12:39:41;;;;;;;5.70;4.22;;;28.30;94.60;;;;;;5052742;28;19928;-71
2022/08/15 12:42:12;;;;;;;8.13;4.63;;;28.10;95.20;;;;;;5042166;28;20040;-71
2022/08/15 12:44:38;;;;;;;5.97;3.65;;;28.10;94.70;;;;;;5043247;28;20443;-73
2022/08/15 12:47:05;;;;;;;6.93;3.80;;;28.00;94.90;;;;;;5041717;28;20538;-72
2022/08/15 12:49:30;;;;;;;6.15;4.10;;;27.90;94.70;;;;;;5057859;28;20037;-72
2022/08/15 12:51:56;;;;;;;5.88;4.00;;;27.80;94.30;;;;;;5060358;28;20047;-71
2022/08/15 12:54:22;;;;;;;5.05;3.40;;;27.70;94.50;;;;;;5061634;28;20043;-72
2022/08/15 12:56:47;;;;;;;7.05;3.67;;;27.60;94.20;;;;;;5041622;28;20063;-72
2022/08/15 12:59:14;;;;;;;10.60;4.30;;;27.60;94.20;;;;;;5058173;28;20520;-71
2022/08/15 13:01:42;;;;;;;5.35;3.15;;;27.60;94.40;;;;;;5056123;28;20036;-73
2022/08/15 13:04:11;;;;;;;8.38;4.28;;;27.70;94.50;;;;;;5059046;28;20044;-71
2022/08/15 13:06:42;;;;;;;6.13;3.58;;;28.00;94.60;;;;;;5057083;28;20078;-73
2022/08/15 13:09:10;;;;;;;6.57;4.20;;;28.10;94.70;;;;;;5042430;28;20055;-70